createdAt,value
2023-05-11T00:02:05.331Z,6.40
2023-05-11T00:04:53.939Z,4.40
2023-05-11T00:07:23.208Z,7.30
2023-05-11T00:09:51.206Z,6.20
2023-05-11T00:12:39.277Z,8.20
2023-05-11T00:15:10.791Z,7.90
2023-05-11T00:18:23.655Z,6.70
2023-05-11T00:21:02.483Z,5.10
2023-05-11T00:24:22.008Z,6.10
2023-05-11T00:27:13.611Z,9.90
2023-05-11T00:29:43.196Z,7.00
2023-05-11T00:32:11.976Z,8.90
2023-05-11T00:34:41.473Z,6.40
2023-05-11T00:37:08.699Z,7.00
2023-05-11T00:39:39.850Z,8.00
2023-05-11T00:42:26.701Z,8.10
2023-05-11T00:44:56.165Z,6.30
2023-05-11T00:47:24.837Z,7.70
2023-05-11T00:50:12.263Z,6.90
2023-05-11T00:52:41.179Z,9.00
2023-05-11T00:55:09.769Z,7.10
2023-05-11T00:57:41.575Z,6.70
2023-05-11T01:00:09.837Z,6.60
2023-05-11T01:02:42.404Z,9.40
2023-05-11T01:05:11.937Z,7.10
2023-05-11T01:08:17.995Z,7.10
2023-05-11T01:11:38.065Z,8.70
2023-05-11T01:14:10.062Z,8.60
2023-05-11T01:16:40.491Z,5.80
2023-05-11T01:19:15.053Z,8.70
2023-05-11T01:21:43.612Z,7.30
2023-05-11T01:24:49.519Z,6.90
2023-05-11T01:27:58.641Z,8.40
2023-05-11T01:30:40.252Z,8.60
2023-05-11T01:33:27.338Z,5.90
2023-05-11T01:38:24.264Z,5.60
2023-05-11T01:41:16.206Z,9.70
2023-05-11T01:43:48.278Z,7.60
2023-05-11T01:46:26.806Z,9.00
2023-05-11T01:48:56.601Z,9.30
2023-05-11T01:51:28.864Z,8.20
2023-05-11T01:53:57.492Z,9.00
2023-05-11T01:56:28.709Z,8.10
2023-05-11T01:58:56.998Z,6.80
2023-05-11T02:01:24.988Z,5.40
2023-05-11T02:03:52.217Z,9.00
2023-05-11T02:06:20.845Z,9.70
2023-05-11T02:08:48.052Z,11.60
2023-05-11T02:11:15.563Z,8.60
2023-05-11T02:13:44.983Z,10.70
2023-05-11T02:16:15.069Z,11.80
2023-05-11T02:18:42.266Z,9.30
2023-05-11T02:21:10.365Z,11.60
2023-05-11T02:23:38.703Z,12.20
2023-05-11T02:26:06.546Z,10.60
2023-05-11T02:28:36.102Z,11.10
2023-05-11T02:31:07.942Z,11.20
2023-05-11T02:33:39.565Z,14.20
2023-05-11T02:36:08.172Z,11.90
2023-05-11T02:38:37.017Z,10.60
2023-05-11T02:41:12.021Z,11.40
2023-05-11T02:43:44.239Z,13.70
2023-05-11T02:46:23.140Z,11.80
2023-05-11T02:48:55.342Z,11.90
2023-05-11T02:51:27.745Z,13.70
2023-05-11T02:53:57.826Z,9.10
2023-05-11T02:56:27.222Z,10.50
2023-05-11T02:58:54.609Z,7.10
2023-05-11T03:01:24.740Z,12.00
2023-05-11T03:04:06.164Z,10.20
2023-05-11T03:06:35.561Z,10.00
2023-05-11T03:09:09.339Z,9.80
2023-05-11T03:11:57.401Z,7.80
2023-05-11T03:14:24.598Z,6.80
2023-05-11T03:16:57.408Z,5.50
2023-05-11T03:19:27.685Z,12.00
2023-05-11T03:24:28.355Z,3.90
2023-05-11T03:26:56.683Z,7.20
2023-05-11T03:29:44.840Z,6.10
2023-05-11T03:32:14.728Z,5.50
2023-05-11T03:35:24.239Z,5.00
2023-05-11T03:38:00.453Z,4.50
2023-05-11T03:40:32.080Z,7.10
2023-05-11T03:43:19.588Z,10.60
2023-05-11T03:45:50.038Z,7.30
2023-05-11T03:48:22.500Z,6.60
2023-05-11T03:50:53.445Z,7.00
2023-05-11T03:53:21.187Z,7.50
2023-05-11T03:55:50.285Z,8.30
2023-05-11T03:58:18.312Z,6.30
2023-05-11T04:00:45.602Z,7.80
2023-05-11T04:03:13.774Z,6.10
2023-05-11T04:08:13.254Z,12.40
2023-05-11T04:10:43.402Z,8.80
2023-05-11T04:13:16.084Z,9.80
2023-05-11T04:15:45.166Z,6.30
2023-05-11T04:18:12.865Z,5.00
2023-05-11T04:20:42.297Z,7.60
2023-05-11T04:24:01.531Z,6.90
2023-05-11T04:26:32.860Z,6.20
2023-05-11T04:29:00.569Z,5.10
2023-05-11T04:31:29.872Z,6.80
2023-05-11T04:33:58.933Z,5.00
2023-05-11T04:36:30.224Z,5.90
2023-05-11T04:39:17.515Z,3.90
2023-05-11T04:41:45.778Z,6.30
2023-05-11T04:44:13.053Z,5.60
2023-05-11T04:46:40.945Z,7.20
2023-05-11T04:49:13.176Z,6.80
2023-05-11T04:51:56.669Z,5.80
2023-05-11T04:54:24.990Z,6.70
2023-05-11T04:57:17.031Z,3.90
2023-05-11T04:59:47.165Z,3.80
2023-05-11T05:02:15.915Z,4.30
2023-05-11T05:04:45.931Z,5.30
2023-05-11T05:07:44.414Z,4.00
2023-05-11T05:10:33.821Z,7.90
2023-05-11T05:13:37.482Z,13.80
2023-05-11T05:16:40.165Z,4.90
2023-05-11T05:19:11.712Z,6.70
2023-05-11T05:21:40.228Z,7.00
2023-05-11T05:24:12.584Z,5.90
2023-05-11T05:27:24.844Z,4.50
2023-05-11T05:30:00.396Z,6.70
2023-05-11T05:32:51.206Z,9.00
2023-05-11T05:35:47.176Z,6.90
2023-05-11T05:38:16.176Z,8.40
2023-05-11T05:40:47.319Z,11.90
2023-05-11T05:43:18.357Z,8.60
2023-05-11T05:45:45.925Z,10.60
2023-05-11T05:48:16.316Z,7.70
2023-05-11T05:51:06.227Z,9.70
2023-05-11T05:53:59.573Z,9.10
2023-05-11T05:56:34.419Z,8.10
2023-05-11T05:59:23.151Z,9.80
2023-05-11T06:01:56.485Z,11.70
2023-05-11T06:04:25.705Z,10.30
2023-05-11T06:07:05.366Z,8.40
2023-05-11T06:09:34.351Z,11.80
2023-05-11T06:12:04.187Z,7.50
2023-05-11T06:14:32.968Z,8.60
2023-05-11T06:17:06.160Z,10.10
2023-05-11T06:19:35.849Z,11.20
2023-05-11T06:22:09.120Z,11.30
2023-05-11T06:24:40.163Z,7.80
2023-05-11T06:27:07.868Z,8.50
2023-05-11T06:32:09.208Z,6.30
2023-05-11T06:34:36.332Z,5.90
2023-05-11T06:37:05.020Z,9.30
2023-05-11T06:39:39.330Z,7.40
2023-05-11T06:42:08.523Z,6.10
2023-05-11T06:44:35.633Z,4.10
2023-05-11T06:47:10.025Z,6.60
2023-05-11T06:49:38.305Z,5.50
2023-05-11T06:52:05.911Z,6.10
2023-05-11T06:54:33.588Z,6.60
2023-05-11T06:57:03.165Z,4.70
2023-05-11T07:02:01.689Z,3.40
2023-05-11T07:04:29.845Z,5.00
2023-05-11T07:06:57.488Z,4.00
2023-05-11T07:09:25.082Z,4.60
2023-05-11T07:11:52.638Z,5.40
2023-05-11T07:14:19.712Z,5.80
2023-05-11T07:16:53.598Z,3.20
2023-05-11T07:19:24.321Z,3.20
2023-05-11T07:21:52.414Z,3.70
2023-05-11T07:24:20.589Z,5.90
2023-05-11T07:26:49.717Z,3.60
2023-05-11T07:31:49.676Z,2.00
2023-05-11T07:34:18.888Z,3.50
2023-05-11T07:36:47.084Z,5.80
2023-05-11T07:39:17.859Z,5.10
2023-05-11T07:41:52.081Z,4.70
2023-05-11T07:44:19.688Z,5.20
2023-05-11T07:46:48.320Z,2.10
2023-05-11T07:49:20.824Z,4.40
2023-05-11T07:51:59.944Z,2.80
2023-05-11T07:54:27.716Z,2.40
2023-05-11T07:56:55.131Z,4.50
2023-05-11T07:59:22.265Z,2.20
2023-05-11T08:01:50.633Z,4.30
2023-05-11T08:04:18.703Z,4.00
2023-05-11T08:06:47.857Z,1.10
2023-05-11T08:09:16.462Z,2.00
2023-05-11T08:11:44.084Z,3.70
2023-05-11T08:14:13.024Z,3.00
2023-05-11T08:16:40.687Z,5.60
2023-05-11T08:19:10.729Z,2.30
2023-05-11T08:21:38.159Z,3.50
2023-05-11T08:24:05.569Z,2.10
2023-05-11T08:26:39.316Z,1.30
2023-05-11T08:29:07.849Z,5.00
2023-05-11T08:31:42.063Z,2.60
2023-05-11T08:34:18.688Z,6.20
2023-05-11T08:36:50.647Z,5.30
2023-05-11T08:39:33.234Z,1.90
2023-05-11T08:42:09.408Z,3.30
2023-05-11T08:44:38.168Z,2.50
2023-05-11T08:49:41.365Z,0.90
2023-05-11T08:52:10.892Z,3.40
2023-05-11T08:54:54.141Z,2.00
2023-05-11T08:57:28.156Z,3.00
2023-05-11T08:59:55.173Z,1.70
2023-05-11T09:02:23.870Z,1.80
2023-05-11T09:04:52.065Z,1.00
2023-05-11T09:07:22.777Z,2.10
2023-05-11T09:09:49.788Z,1.50
2023-05-11T09:12:19.168Z,1.70
2023-05-11T09:14:51.351Z,1.40
2023-05-11T09:17:21.370Z,0.80
2023-05-11T09:22:36.635Z,1.90
2023-05-11T09:25:06.405Z,2.70
2023-05-11T09:27:43.607Z,8.00
2023-05-11T09:30:28.101Z,2.00
2023-05-11T09:33:00.862Z,3.30
2023-05-11T09:35:34.843Z,4.20
2023-05-11T09:38:05.031Z,2.60
2023-05-11T09:40:39.553Z,2.90
2023-05-11T09:43:19.624Z,2.80
2023-05-11T09:45:50.208Z,5.70
2023-05-11T09:48:25.467Z,2.10
2023-05-11T09:51:07.407Z,1.60
2023-05-11T09:53:45.878Z,3.90
2023-05-11T09:56:15.683Z,3.70
2023-05-11T09:58:51.423Z,2.60
2023-05-11T10:01:29.104Z,1.50
2023-05-11T10:06:52.634Z,3.20
2023-05-11T10:09:45.944Z,3.30
2023-05-11T10:12:14.795Z,3.90
2023-05-11T10:14:42.208Z,2.30
2023-05-11T10:17:10.156Z,1.90
2023-05-11T10:19:38.902Z,5.30
2023-05-11T10:22:07.023Z,2.00
2023-05-11T10:24:35.504Z,5.60
2023-05-11T10:27:03.567Z,3.30
2023-05-11T10:29:31.907Z,2.50
2023-05-11T10:32:00.690Z,3.40
2023-05-11T10:34:31.211Z,5.00
2023-05-11T10:37:08.979Z,3.30
2023-05-11T10:39:37.883Z,2.90
2023-05-11T10:42:44.432Z,15.10
2023-05-11T10:45:15.525Z,5.00
2023-05-11T10:50:51.886Z,2.60
2023-05-11T10:53:31.522Z,3.00
2023-05-11T10:56:44.654Z,1.60
2023-05-11T10:59:22.155Z,2.30
2023-05-11T11:01:54.376Z,2.20
2023-05-11T11:04:22.778Z,8.10
2023-05-11T11:07:04.510Z,3.60
2023-05-11T11:09:56.041Z,2.40
2023-05-11T11:12:27.380Z,2.60
2023-05-11T11:14:55.964Z,2.40
2023-05-11T11:17:31.619Z,2.20
2023-05-11T11:20:03.609Z,1.80
2023-05-11T11:22:48.921Z,4.70
2023-05-11T11:25:53.955Z,1.10
2023-05-11T11:28:21.574Z,1.20
2023-05-11T11:30:48.969Z,1.90
2023-05-11T11:33:25.792Z,2.80
2023-05-11T11:35:55.775Z,5.00
2023-05-11T11:38:25.721Z,3.00
2023-05-11T11:40:54.432Z,2.50
2023-05-11T11:43:24.161Z,5.40
2023-05-11T11:46:13.186Z,3.90
2023-05-11T11:48:46.235Z,4.70
2023-05-11T11:51:13.507Z,3.90
2023-05-11T11:53:54.778Z,3.40
2023-05-11T11:56:21.676Z,1.80
2023-05-11T11:58:52.869Z,2.30
2023-05-11T12:01:27.193Z,4.50
2023-05-11T12:04:26.680Z,5.40
2023-05-11T12:06:58.992Z,3.60
2023-05-11T12:09:29.454Z,4.00
2023-05-11T12:11:57.574Z,2.80
2023-05-11T12:14:29.259Z,2.40
2023-05-11T12:19:28.939Z,3.90
2023-05-11T12:21:56.742Z,2.00
2023-05-11T12:24:24.576Z,4.80
2023-05-11T12:26:56.514Z,5.60
2023-05-11T12:29:23.940Z,3.50
2023-05-11T12:31:51.742Z,1.90
2023-05-11T12:34:22.346Z,1.90
2023-05-11T12:36:53.582Z,3.00
2023-05-11T12:39:24.023Z,2.80
2023-05-11T12:41:52.794Z,2.50
2023-05-11T12:44:21.089Z,4.70
2023-05-11T12:46:51.445Z,3.30
2023-05-11T12:49:25.842Z,4.50
2023-05-11T12:52:07.395Z,2.10
2023-05-11T12:54:41.257Z,4.90
2023-05-11T12:57:40.730Z,4.70
2023-05-11T13:00:15.786Z,6.60
2023-05-11T13:02:53.485Z,4.10
2023-05-11T13:05:25.741Z,4.50
2023-05-11T13:08:05.280Z,3.60
2023-05-11T13:10:34.651Z,1.70
2023-05-11T13:13:03.613Z,5.10
2023-05-11T13:15:33.115Z,5.60
2023-05-11T13:18:03.522Z,4.30
2023-05-11T13:20:33.366Z,3.70
2023-05-11T13:23:13.762Z,7.50
2023-05-11T13:26:00.374Z,4.80
2023-05-11T13:28:28.077Z,6.40
2023-05-11T13:31:01.816Z,5.30
2023-05-11T13:33:29.538Z,6.20
2023-05-11T13:35:58.719Z,3.00
2023-05-11T13:38:30.019Z,3.80
2023-05-11T13:40:57.727Z,2.60
2023-05-11T13:43:26.732Z,2.00
2023-05-11T13:45:56.723Z,1.90
2023-05-11T13:48:24.508Z,4.10
2023-05-11T13:50:53.079Z,3.60
2023-05-11T13:53:20.948Z,3.20
2023-05-11T13:55:48.950Z,2.80
2023-05-11T13:58:17.729Z,4.60
2023-05-11T14:00:56.453Z,1.10
2023-05-11T14:03:37.218Z,2.20
2023-05-11T14:06:04.810Z,3.30
2023-05-11T14:08:32.638Z,3.30
2023-05-11T14:11:02.294Z,2.20
2023-05-11T14:13:30.385Z,3.50
2023-05-11T14:15:59.233Z,2.30
2023-05-11T14:18:27.484Z,3.30
2023-05-11T14:20:56.570Z,2.10
2023-05-11T14:23:34.350Z,5.10
2023-05-11T14:26:07.897Z,1.80
2023-05-11T14:31:08.249Z,3.20
2023-05-11T14:33:37.080Z,1.80
2023-05-11T14:36:05.269Z,1.20
2023-05-11T14:38:32.907Z,2.30
2023-05-11T14:41:03.346Z,2.20
2023-05-11T14:46:00.444Z,1.70
2023-05-11T14:48:32.775Z,2.00
2023-05-11T14:51:00.450Z,3.00
2023-05-11T14:53:28.929Z,4.80
2023-05-11T14:55:56.464Z,1.00
2023-05-11T14:58:24.058Z,1.70
2023-05-11T15:00:52.130Z,1.70
2023-05-11T15:03:21.091Z,1.20
2023-05-11T15:05:48.661Z,1.30
2023-05-11T15:08:29.177Z,3.00
2023-05-11T15:10:59.051Z,3.60
2023-05-11T15:16:01.403Z,3.20
2023-05-11T15:18:30.996Z,2.60
2023-05-11T15:20:58.623Z,4.30
2023-05-11T15:23:28.466Z,1.70
2023-05-11T15:25:58.026Z,3.80
2023-05-11T15:30:57.209Z,2.00
2023-05-11T15:33:24.537Z,1.40
2023-05-11T15:35:58.239Z,3.10
2023-05-11T15:38:32.015Z,4.20
2023-05-11T15:40:59.910Z,5.00
2023-05-11T15:43:43.377Z,1.10
2023-05-11T15:46:13.312Z,3.40
2023-05-11T15:48:42.199Z,5.10
2023-05-11T15:51:09.493Z,4.40
2023-05-11T15:53:52.189Z,3.50
2023-05-11T15:56:52.407Z,2.20
2023-05-11T15:59:22.560Z,3.80
2023-05-11T16:02:17.336Z,2.40
2023-05-11T16:04:55.108Z,4.50
2023-05-11T16:07:32.721Z,2.80
2023-05-11T16:10:18.492Z,3.40
2023-05-11T16:12:51.668Z,5.20
2023-05-11T16:15:20.085Z,4.60
2023-05-11T16:17:56.564Z,3.00
2023-05-11T16:21:04.939Z,6.10
2023-05-11T16:23:37.595Z,8.00
2023-05-11T16:26:29.039Z,12.90
2023-05-11T16:28:57.929Z,7.70
2023-05-11T16:31:26.323Z,2.80
2023-05-11T16:33:57.721Z,8.30
2023-05-11T16:36:25.702Z,1.90
2023-05-11T16:38:53.400Z,4.00
2023-05-11T16:41:39.606Z,2.80
2023-05-11T16:44:15.163Z,4.70
2023-05-11T16:46:43.415Z,3.00
2023-05-11T16:49:12.825Z,3.00
2023-05-11T16:51:43.930Z,2.10
2023-05-11T16:54:12.613Z,3.40
2023-05-11T16:56:40.759Z,4.00
2023-05-11T16:59:09.725Z,4.00
2023-05-11T17:01:38.684Z,5.20
2023-05-11T17:04:06.432Z,2.10
2023-05-11T17:06:34.967Z,3.10
2023-05-11T17:09:02.980Z,2.80
2023-05-11T17:11:32.010Z,4.90
2023-05-11T17:14:01.187Z,3.90
2023-05-11T17:16:44.277Z,2.70
2023-05-11T17:19:14.937Z,3.00
2023-05-11T17:21:48.521Z,4.20
2023-05-11T17:24:18.497Z,5.60
2023-05-11T17:26:48.534Z,7.10
2023-05-11T17:29:26.223Z,2.90
2023-05-11T17:31:55.995Z,3.70
2023-05-11T17:34:28.790Z,8.00
2023-05-11T17:36:57.112Z,5.70
2023-05-11T17:39:27.507Z,4.60
2023-05-11T17:41:55.953Z,5.00
2023-05-11T17:44:28.367Z,5.00
2023-05-11T17:46:57.305Z,4.80
2023-05-11T17:49:25.514Z,7.20
2023-05-11T17:51:55.758Z,4.70
2023-05-11T17:54:23.884Z,5.20
2023-05-11T17:56:55.259Z,4.40
2023-05-11T17:59:23.431Z,3.90
2023-05-11T18:01:58.539Z,7.10
2023-05-11T18:04:36.484Z,5.50
2023-05-11T18:07:20.419Z,4.00
2023-05-11T18:09:47.816Z,4.70
2023-05-11T18:12:20.436Z,4.20
2023-05-11T18:14:50.722Z,5.90
2023-05-11T18:17:19.971Z,7.30
2023-05-11T18:19:48.519Z,6.20
2023-05-11T18:22:18.427Z,6.70
2023-05-11T18:24:46.429Z,5.30
2023-05-11T18:27:25.541Z,5.80
2023-05-11T18:29:54.845Z,5.30
2023-05-11T18:32:25.425Z,8.30
2023-05-11T18:34:55.849Z,15.20
2023-05-11T18:37:24.130Z,10.60
2023-05-11T18:39:55.587Z,12.20
2023-05-11T18:42:25.102Z,6.50
2023-05-11T18:44:55.404Z,11.30
2023-05-11T18:47:30.905Z,7.10
2023-05-11T18:50:01.022Z,6.40
2023-05-11T18:52:29.205Z,6.00
2023-05-11T18:54:58.725Z,5.20
2023-05-11T18:57:27.001Z,6.50
2023-05-11T18:59:55.170Z,6.90
2023-05-11T19:02:23.656Z,10.10
2023-05-11T19:04:59.545Z,4.70
2023-05-11T19:07:28.165Z,7.70
2023-05-11T19:09:57.444Z,6.30
2023-05-11T19:12:27.585Z,5.60
2023-05-11T19:14:55.840Z,5.20
2023-05-11T19:17:25.177Z,7.60
2023-05-11T19:19:57.559Z,8.20
2023-05-11T19:22:25.309Z,8.90
2023-05-11T19:24:53.372Z,74.50
2023-05-11T19:27:24.649Z,27.30
2023-05-11T19:30:15.608Z,15.00
2023-05-11T19:32:53.355Z,12.30
2023-05-11T19:35:23.007Z,7.80
2023-05-11T19:37:52.749Z,8.00
2023-05-11T19:40:44.021Z,6.10
2023-05-11T19:43:14.563Z,6.90
2023-05-11T19:45:44.772Z,5.60
2023-05-11T19:48:14.433Z,5.90
2023-05-11T19:50:43.757Z,8.20
2023-05-11T19:53:12.791Z,6.20
2023-05-11T19:55:40.948Z,11.80
2023-05-11T19:58:20.153Z,10.90
2023-05-11T20:00:47.866Z,6.80
2023-05-11T20:03:18.226Z,10.50
2023-05-11T20:05:50.235Z,11.70
2023-05-11T20:08:21.014Z,10.60
2023-05-11T20:10:48.793Z,13.60
2023-05-11T20:13:17.482Z,14.70
2023-05-11T20:15:46.414Z,18.50
2023-05-11T20:18:15.363Z,19.70
2023-05-11T20:20:44.149Z,18.90
2023-05-11T20:23:11.392Z,15.10
2023-05-11T20:25:43.188Z,9.70
2023-05-11T20:28:13.930Z,8.70
2023-05-11T20:30:42.155Z,7.70
2023-05-11T20:35:41.215Z,15.10
2023-05-11T20:38:09.252Z,10.90
2023-05-11T20:40:38.065Z,13.10
2023-05-11T20:43:06.081Z,10.20
2023-05-11T20:45:35.523Z,9.90
2023-05-11T20:48:03.787Z,13.50
2023-05-11T20:50:32.176Z,13.90
2023-05-11T20:53:00.184Z,12.20
2023-05-11T20:55:30.034Z,13.70
2023-05-11T20:57:57.412Z,14.00
2023-05-11T21:00:24.961Z,13.00
2023-05-11T21:02:55.112Z,9.80
2023-05-11T21:05:24.831Z,12.30
2023-05-11T21:07:55.466Z,17.60
2023-05-11T21:10:24.487Z,15.90
2023-05-11T21:15:19.567Z,16.90
2023-05-11T21:17:46.594Z,12.40
2023-05-11T21:20:16.968Z,12.30
2023-05-11T21:22:44.220Z,11.60
2023-05-11T21:25:12.270Z,9.20
2023-05-11T21:27:41.109Z,9.50
2023-05-11T21:30:10.537Z,10.60
2023-05-11T21:32:38.163Z,10.50
2023-05-11T21:35:07.158Z,9.30
2023-05-11T21:37:35.864Z,8.50
2023-05-11T21:40:03.509Z,10.30
2023-05-11T21:42:34.032Z,10.00
2023-05-11T21:45:06.153Z,13.80
2023-05-11T21:47:35.856Z,9.20
2023-05-11T21:50:06.966Z,16.30
2023-05-11T21:52:34.671Z,10.20
2023-05-11T21:55:01.724Z,12.30
2023-05-11T21:57:31.082Z,14.00
2023-05-11T21:59:58.755Z,15.50
2023-05-11T22:02:29.673Z,12.90
2023-05-11T22:05:00.303Z,11.00
2023-05-11T22:07:43.337Z,10.90
2023-05-11T22:10:12.956Z,12.20
2023-05-11T22:12:56.170Z,9.70
2023-05-11T22:15:25.046Z,11.20
2023-05-11T22:17:52.043Z,13.20
2023-05-11T22:20:19.622Z,11.60
2023-05-11T22:22:47.165Z,9.50
2023-05-11T22:25:14.268Z,11.30
2023-05-11T22:27:41.258Z,11.30
2023-05-11T22:30:08.974Z,12.70
2023-05-11T22:32:37.896Z,13.70
2023-05-11T22:35:07.410Z,15.70
2023-05-11T22:37:35.668Z,10.50
2023-05-11T22:40:05.356Z,15.20
2023-05-11T22:42:34.214Z,12.10
2023-05-11T22:45:02.388Z,12.10
2023-05-11T22:47:29.696Z,15.20
2023-05-11T22:49:58.761Z,13.40
2023-05-11T22:54:58.766Z,17.10
2023-05-11T22:57:37.756Z,13.90
2023-05-11T23:00:31.615Z,14.50
2023-05-11T23:02:58.635Z,15.90
2023-05-11T23:05:25.915Z,15.50
2023-05-11T23:07:55.408Z,16.70
2023-05-11T23:12:52.074Z,18.20
2023-05-11T23:15:19.023Z,13.50
2023-05-11T23:17:47.349Z,13.60
2023-05-11T23:20:14.447Z,15.70
2023-05-11T23:22:41.700Z,13.70
2023-05-11T23:25:09.971Z,15.40
2023-05-11T23:27:37.005Z,16.20
2023-05-11T23:30:08.516Z,20.30
2023-05-11T23:32:36.624Z,17.70
2023-05-11T23:35:04.810Z,13.40
2023-05-11T23:37:32.536Z,15.90
2023-05-11T23:40:00.175Z,12.40
2023-05-11T23:42:27.594Z,14.30
2023-05-11T23:44:54.553Z,19.30
2023-05-11T23:47:21.712Z,17.60
2023-05-11T23:49:51.066Z,13.50
2023-05-11T23:52:18.323Z,16.50
2023-05-11T23:54:45.396Z,21.70
2023-05-11T23:57:12.933Z,18.20
2023-05-11T23:59:41.178Z,16.50
